Time;durP1;ratioP1;P1;durP2;ratioP2;P2;SDS_P1;SDS_P2;PMS_P1;PMS_P2;Temp;Humidity;BMP_temperature;BMP_pressure;BME280_temperature;BME280_humidity;BME280_pressure;Samples;Min_cycle;Max_cycle;Signal;HPM_P1;HPM_P2
2022/09/28 00:00:12;;;;;;;;;;;11.40;99.90;;;;;;5047745;28;20042;-69
2022/09/28 00:02:39;;;;;;;;;;;11.40;99.90;;;;;;5064908;28;19946;-68
2022/09/28 00:05:06;;;;;;;;;;;11.40;99.90;;;;;;5066756;28;19920;-69
2022/09/28 00:07:33;;;;;;;;;;;11.40;99.90;;;;;;5062747;28;19931;-70
2022/09/28 00:10:00;;;;;;;;;;;11.40;99.90;;;;;;5066400;28;19943;-67
2022/09/28 00:12:27;;;;;;;;;;;11.40;99.90;;;;;;5037597;28;20034;-69
2022/09/28 00:14:54;;;;;;;;;;;11.30;99.90;;;;;;5068760;28;20003;-67
2022/09/28 00:17:22;;;;;;;;;;;11.30;99.90;;;;;;5070427;28;19926;-68
2022/09/28 00:19:49;;;;;;;;;;;11.30;99.90;;;;;;5070897;28;19932;-68
2022/09/28 00:22:16;;;;;;;;;;;11.30;99.90;;;;;;5070599;28;19928;-68
2022/09/28 00:24:43;;;;;;;;;;;11.30;99.90;;;;;;5069373;28;19920;-67
2022/09/28 00:27:10;;;;;;;;;;;11.20;99.90;;;;;;5070924;28;20011;-73
2022/09/28 00:29:37;;;;;;;;;;;11.20;99.90;;;;;;5068351;28;19924;-68
2022/09/28 00:32:06;;;;;;;;;;;11.20;99.90;;;;;;5053027;28;19920;-67
2022/09/28 00:34:34;;;;;;;;;;;11.10;99.90;;;;;;5068825;28;19924;-67
2022/09/28 00:37:02;;;;;;;;;;;11.10;99.90;;;;;;5068278;28;19920;-67
2022/09/28 00:39:31;;;;;;;;;;;11.10;99.90;;;;;;5069498;28;19927;-69
2022/09/28 00:41:58;;;;;;;;;;;11.10;99.90;;;;;;5052163;28;19947;-73
2022/09/28 00:44:25;;;;;;;;;;;11.10;99.90;;;;;;5043801;28;19970;-71
2022/09/28 00:46:57;;;;;;;;;;;11.10;99.90;;;;;;5065347;28;19920;-68
2022/09/28 00:49:47;;;;;;;;;;;11.10;99.90;;;;;;5066350;28;19965;-71
2022/09/28 00:52:18;;;;;;;;;;;11.00;99.90;;;;;;5018939;28;19920;-69
2022/09/28 00:54:46;;;;;;;;;;;11.00;99.90;;;;;;5050166;28;19935;-72
2022/09/28 00:57:13;;;;;;;;;;;11.00;99.90;;;;;;5070670;28;20015;-67
2022/09/28 00:59:40;;;;;;;;;;;11.00;99.90;;;;;;5049349;28;19931;-69
2022/09/28 01:02:09;;;;;;;;;;;11.00;99.90;;;;;;5066042;28;19920;-67
2022/09/28 01:04:37;;;;;;;;;;;11.00;99.90;;;;;;5065677;28;19921;-68
2022/09/28 01:07:05;;;;;;;;;;;10.90;99.90;;;;;;5052118;28;20265;-68
2022/09/28 01:09:32;;;;;;;;;;;10.90;99.90;;;;;;5051585;28;20018;-67
2022/09/28 01:11:59;;;;;;;;;;;10.90;99.90;;;;;;5051105;28;19947;-68
2022/09/28 01:14:26;;;;;;;;;;;10.90;99.90;;;;;;5065484;28;19924;-68
2022/09/28 01:17:13;;;;;;;;;;;10.90;99.90;;;;;;5044206;28;20011;-69
2022/09/28 01:20:07;;;;;;;;;;;10.90;99.90;;;;;;5051562;28;19931;-68
2022/09/28 01:22:43;;;;;;;;;;;10.90;99.90;;;;;;5042693;28;19921;-67
2022/09/28 01:25:10;;;;;;;;;;;10.80;99.90;;;;;;5051668;28;19970;-69
2022/09/28 01:27:46;;;;;;;;;;;10.80;99.90;;;;;;5050631;28;20393;-68
2022/09/28 01:30:17;;;;;;;;;;;10.80;99.90;;;;;;5050300;28;20007;-68
2022/09/28 01:32:50;;;;;;;;;;;10.80;99.90;;;;;;5047061;28;20005;-68
2022/09/28 01:35:16;;;;;;;;;;;10.80;99.90;;;;;;5068133;28;19951;-68
2022/09/28 01:37:51;;;;;;;;;;;10.80;99.90;;;;;;5069304;28;20023;-73
2022/09/28 01:40:20;;;;;;;;;;;10.80;99.90;;;;;;5065634;28;20016;-68
2022/09/28 01:42:49;;;;;;;;;;;10.80;99.90;;;;;;5049837;28;19920;-68
2022/09/28 01:45:27;;;;;;;;;;;10.80;99.90;;;;;;5064108;28;19930;-69
2022/09/28 01:47:58;;;;;;;;;;;10.90;99.90;;;;;;5066120;28;19960;-68
2022/09/28 01:50:27;;;;;;;;;;;10.90;99.90;;;;;;5047740;28;19924;-67
2022/09/28 01:52:56;;;;;;;;;;;10.90;99.90;;;;;;5063788;28;19921;-69
2022/09/28 01:55:28;;;;;;;;;;;10.90;99.90;;;;;;5050119;28;19935;-69
2022/09/28 01:57:58;;;;;;;;;;;10.90;99.90;;;;;;5046551;28;20022;-68
2022/09/28 02:00:25;;;;;;;;;;;10.80;99.90;;;;;;5067425;28;20012;-68
2022/09/28 02:02:57;;;;;;;;;;;10.90;99.90;;;;;;5065531;28;19962;-69
2022/09/28 02:05:37;;;;;;;;;;;10.90;99.90;;;;;;5049293;28;20385;-69
2022/09/28 02:08:10;;;;;;;;;;;10.90;99.90;;;;;;5067637;28;20380;-68
2022/09/28 02:10:45;;;;;;;;;;;10.90;99.90;;;;;;5065030;28;19950;-70
2022/09/28 02:13:18;;;;;;;;;;;10.80;99.90;;;;;;5048523;28;19965;-72
2022/09/28 02:15:50;;;;;;;;;;;10.90;99.90;;;;;;5058087;28;19928;-70
2022/09/28 02:18:17;;;;;;;;;;;10.90;99.90;;;;;;5061414;28;20273;-69
2022/09/28 02:20:48;;;;;;;;;;;10.90;99.90;;;;;;5063394;28;19928;-68
2022/09/28 02:23:15;;;;;;;;;;;10.90;99.90;;;;;;5068312;28;19927;-69
2022/09/28 02:25:45;;;;;;;;;;;10.90;99.90;;;;;;5044651;28;19921;-69
2022/09/28 02:28:12;;;;;;;;;;;10.90;99.90;;;;;;5068127;28;20251;-70
2022/09/28 02:30:40;;;;;;;;;;;10.90;99.90;;;;;;5048134;28;20015;-68
2022/09/28 02:33:12;;;;;;;;;;;10.90;99.90;;;;;;5066513;28;19943;-68
2022/09/28 02:35:40;;;;;;;;;;;10.80;99.90;;;;;;5061720;28;19978;-68
2022/09/28 02:38:07;;;;;;;;;;;10.80;99.90;;;;;;5050187;28;20015;-69
2022/09/28 02:40:36;;;;;;;;;;;10.80;99.90;;;;;;5046256;28;20388;-69
2022/09/28 02:43:15;;;;;;;;;;;10.80;99.90;;;;;;5067289;28;20254;-69
2022/09/28 02:46:01;;;;;;;;;;;10.80;99.90;;;;;;5048423;28;19986;-68
2022/09/28 02:48:44;;;;;;;;;;;10.80;99.90;;;;;;5032399;28;19931;-68
2022/09/28 02:51:34;;;;;;;;;;;10.90;99.90;;;;;;5063943;28;19964;-70
2022/09/28 02:54:20;;;;;;;;;;;10.90;99.90;;;;;;5047322;28;19924;-69
2022/09/28 02:56:59;;;;;;;;;;;10.90;99.90;;;;;;5063512;28;19924;-68
2022/09/28 02:59:41;;;;;;;;;;;10.90;99.90;;;;;;5048206;28;19924;-70
2022/09/28 03:02:24;;;;;;;;;;;10.90;99.90;;;;;;5047412;28;20018;-70
2022/09/28 03:05:03;;;;;;;;;;;11.00;99.90;;;;;;5047926;28;20301;-69
2022/09/28 03:07:38;;;;;;;;;;;11.00;99.90;;;;;;5046083;28;20216;-69
2022/09/28 03:10:12;;;;;;;;;;;11.10;99.90;;;;;;5049357;28;19990;-69
2022/09/28 03:12:40;;;;;;;;;;;11.10;99.90;;;;;;5043209;28;19920;-68
2022/09/28 03:15:12;;;;;;;;;;;11.20;99.90;;;;;;5049751;28;19927;-68
2022/09/28 03:17:40;;;;;;;;;;;11.20;99.90;;;;;;5047708;28;20362;-69
2022/09/28 03:20:08;;;;;;;;;;;11.20;99.90;;;;;;5049353;28;20011;-69
2022/09/28 03:22:35;;;;;;;;;;;11.20;99.90;;;;;;5044421;28;19924;-72
2022/09/28 03:25:03;;;;;;;;;;;11.30;99.90;;;;;;5046616;28;19920;-71
2022/09/28 03:27:30;;;;;;;;;;;11.30;99.90;;;;;;5046302;28;19924;-69
2022/09/28 03:29:57;;;;;;;;;;;11.30;99.90;;;;;;5041699;28;20028;-69
2022/09/28 03:32:24;;;;;;;;;;;11.30;99.90;;;;;;5065192;28;19921;-72
2022/09/28 03:34:50;;;;;;;;;;;11.30;99.90;;;;;;5046642;28;20407;-69
2022/09/28 03:37:17;;;;;;;;;;;11.30;99.90;;;;;;5049220;28;20350;-69
2022/09/28 03:39:44;;;;;;;;;;;11.30;99.90;;;;;;5043125;28;19928;-70
2022/09/28 03:42:11;;;;;;;;;;;11.30;99.90;;;;;;5049083;28;19921;-70
2022/09/28 03:44:42;;;;;;;;;;;11.40;99.90;;;;;;5052009;28;19942;-69
2022/09/28 03:47:09;;;;;;;;;;;11.40;99.90;;;;;;5063386;28;19920;-69
2022/09/28 03:49:36;;;;;;;;;;;11.40;99.90;;;;;;5057656;28;19927;-69
2022/09/28 03:52:04;;;;;;;;;;;11.40;99.90;;;;;;5052895;28;19962;-69
2022/09/28 03:54:30;;;;;;;;;;;11.40;99.90;;;;;;5045144;28;19926;-69
2022/09/28 03:56:57;;;;;;;;;;;11.40;99.90;;;;;;5048166;28;19956;-69
2022/09/28 03:59:24;;;;;;;;;;;11.40;99.90;;;;;;5052665;28;19920;-69
2022/09/28 04:01:51;;;;;;;;;;;11.40;99.90;;;;;;5050933;28;19969;-69
2022/09/28 04:04:18;;;;;;;;;;;11.40;99.90;;;;;;5051421;28;19943;-69
2022/09/28 04:06:45;;;;;;;;;;;11.40;99.90;;;;;;5058617;28;19935;-69
2022/09/28 04:09:12;;;;;;;;;;;11.40;99.90;;;;;;5051566;28;19973;-69
2022/09/28 04:11:40;;;;;;;;;;;11.40;99.90;;;;;;5048563;28;20300;-69
2022/09/28 04:14:28;;;;;;;;;;;11.40;99.90;;;;;;5041676;28;19925;-71
2022/09/28 04:16:55;;;;;;;;;;;11.40;99.90;;;;;;5052564;28;20015;-69
2022/09/28 04:19:24;;;;;;;;;;;11.30;99.90;;;;;;5049390;28;19935;-71
2022/09/28 04:22:09;;;;;;;;;;;11.30;99.90;;;;;;5071345;28;19935;-69
2022/09/28 04:24:37;;;;;;;;;;;11.30;99.90;;;;;;5050421;28;19927;-69
2022/09/28 04:29:50;;;;;;;;;;;11.30;99.90;;;;;;5055252;28;19925;-69
2022/09/28 04:32:17;;;;;;;;;;;11.20;99.90;;;;;;5052807;28;19921;-70
2022/09/28 04:34:43;;;;;;;;;;;11.20;99.90;;;;;;5074001;28;20316;-69
2022/09/28 04:37:11;;;;;;;;;;;11.20;99.90;;;;;;5051404;28;19921;-70
2022/09/28 04:39:39;;;;;;;;;;;11.10;99.90;;;;;;5052754;28;19920;-71
2022/09/28 04:42:11;;;;;;;;;;;11.10;99.90;;;;;;5051101;28;19970;-71
2022/09/28 04:44:38;;;;;;;;;;;11.10;99.90;;;;;;5048917;28;19921;-69
2022/09/28 04:47:07;;;;;;;;;;;11.10;99.90;;;;;;5049895;28;20265;-69
2022/09/28 04:49:55;;;;;;;;;;;11.10;99.90;;;;;;5049351;28;19964;-69
2022/09/28 04:52:31;;;;;;;;;;;11.10;99.90;;;;;;5054261;28;19938;-70
2022/09/28 04:54:57;;;;;;;;;;;11.10;99.90;;;;;;5054017;28;19928;-70
2022/09/28 04:57:25;;;;;;;;;;;11.00;99.90;;;;;;5049245;28;20019;-72
2022/09/28 04:59:53;;;;;;;;;;;11.00;99.90;;;;;;5065521;28;20139;-69
2022/09/28 05:02:20;;;;;;;;;;;11.00;99.90;;;;;;5065085;28;20003;-69
2022/09/28 05:05:09;;;;;;;;;;;11.00;99.90;;;;;;5046600;28;20333;-69
2022/09/28 05:08:02;;;;;;;;;;;11.00;99.90;;;;;;5063463;28;19924;-72
2022/09/28 05:10:29;;;;;;;;;;;11.00;99.90;;;;;;5043748;28;19939;-69
2022/09/28 05:12:56;;;;;;;;;;;11.00;99.90;;;;;;5048855;28;19994;-69
2022/09/28 05:15:22;;;;;;;;;;;11.00;99.90;;;;;;5045193;28;19928;-72
2022/09/28 05:17:51;;;;;;;;;;;11.00;99.90;;;;;;5049662;28;20371;-69
2022/09/28 05:20:38;;;;;;;;;;;11.00;99.90;;;;;;5047954;28;19920;-71
2022/09/28 05:23:08;;;;;;;;;;;11.00;99.90;;;;;;5068724;28;19924;-69
2022/09/28 05:25:35;;;;;;;;;;;11.00;99.90;;;;;;5050236;28;19929;-70
2022/09/28 05:28:19;;;;;;;;;;;11.10;99.90;;;;;;5048862;28;19924;-69
2022/09/28 05:31:06;;;;;;;;;;;11.10;99.90;;;;;;5062085;28;19924;-73
2022/09/28 05:34:05;;;;;;;;;;;11.10;99.90;;;;;;5023315;28;20018;-69
2022/09/28 05:36:32;;;;;;;;;;;11.20;99.90;;;;;;5048031;28;20390;-70
2022/09/28 05:38:58;;;;;;;;;;;11.30;99.90;;;;;;5050141;28;19921;-69
2022/09/28 05:41:25;;;;;;;;;;;11.30;99.90;;;;;;5049608;28;19981;-71
2022/09/28 05:43:53;;;;;;;;;;;11.30;99.90;;;;;;5066838;28;20326;-68
2022/09/28 05:46:22;;;;;;;;;;;11.40;99.90;;;;;;5069118;28;19935;-68
2022/09/28 05:48:51;;;;;;;;;;;11.40;99.90;;;;;;5048318;28;20370;-70
2022/09/28 05:51:18;;;;;;;;;;;11.40;99.90;;;;;;5065446;28;20019;-69
2022/09/28 05:53:45;;;;;;;;;;;11.50;99.90;;;;;;5048787;28;19932;-70
2022/09/28 05:56:14;;;;;;;;;;;11.50;99.90;;;;;;5044158;28;20629;-70
2022/09/28 05:58:43;;;;;;;;;;;11.60;99.90;;;;;;5047307;28;19963;-70
2022/09/28 06:01:10;;;;;;;;;;;11.60;99.90;;;;;;5049797;28;19928;-70
2022/09/28 06:03:37;;;;;;;;;;;11.60;99.90;;;;;;5046568;28;19928;-70
2022/09/28 06:06:04;;;;;;;;;;;11.60;99.90;;;;;;5045917;28;20431;-70
2022/09/28 06:08:31;;;;;;;;;;;11.60;99.90;;;;;;5048846;28;19932;-70
2022/09/28 06:11:17;;;;;;;;;;;11.60;99.90;;;;;;5060808;28;19927;-70
2022/09/28 06:13:45;;;;;;;;;;;11.70;99.90;;;;;;5044754;28;19928;-69
2022/09/28 06:16:14;;;;;;;;;;;11.70;99.90;;;;;;5039880;28;19928;-70
2022/09/28 06:18:41;;;;;;;;;;;11.70;99.90;;;;;;5042437;28;19989;-70
2022/09/28 06:21:11;;;;;;;;;;;11.70;99.90;;;;;;5066597;28;20305;-70
2022/09/28 06:23:43;;;;;;;;;;;11.80;99.90;;;;;;5047019;28;19970;-70
2022/09/28 06:26:15;;;;;;;;;;;11.80;99.90;;;;;;5047243;28;19928;-70
2022/09/28 06:28:43;;;;;;;;;;;11.80;99.90;;;;;;5046174;28;19992;-70
2022/09/28 06:31:10;;;;;;;;;;;11.90;99.90;;;;;;5049392;28;19924;-70
2022/09/28 06:33:45;;;;;;;;;;;11.90;99.90;;;;;;5039568;28;19934;-71
2022/09/28 06:36:12;;;;;;;;;;;11.90;99.90;;;;;;5044099;28;19955;-70
2022/09/28 06:38:39;;;;;;;;;;;11.90;99.90;;;;;;5044240;28;20019;-70
2022/09/28 06:41:05;;;;;;;;;;;12.00;99.90;;;;;;5048981;28;19928;-70
2022/09/28 06:43:33;;;;;;;;;;;12.00;99.90;;;;;;5053682;28;20598;-70
2022/09/28 06:46:19;;;;;;;;;;;12.00;99.90;;;;;;5063932;28;20466;-71
2022/09/28 06:48:46;;;;;;;;;;;12.10;99.90;;;;;;5064234;28;19928;-71
2022/09/28 06:51:18;;;;;;;;;;;12.10;99.90;;;;;;5045587;28;19928;-71
2022/09/28 06:53:56;;;;;;;;;;;12.20;99.90;;;;;;5063652;28;19928;-71
2022/09/28 06:56:41;;;;;;;;;;;12.30;99.90;;;;;;5060326;28;20321;-74
2022/09/28 06:59:09;;;;;;;;;;;12.30;99.90;;;;;;5066588;28;19973;-71
2022/09/28 07:01:37;;;;;;;;;;;12.40;99.90;;;;;;5065114;28;20320;-70
2022/09/28 07:04:36;;;;;;;;;;;12.30;99.90;;;;;;5043006;28;20026;-70
2022/09/28 07:07:21;;;;;;;;;;;12.40;99.90;;;;;;5063389;28;22248;-70
2022/09/28 07:10:04;;;;;;;;;;;12.40;99.90;;;;;;5044386;28;19925;-69
2022/09/28 07:13:01;;;;;;;;;;;12.50;99.90;;;;;;5061032;28;19921;-70
2022/09/28 07:15:52;;;;;;;;;;;12.50;99.90;;;;;;5065596;28;19935;-70
2022/09/28 07:18:19;;;;;;;;;;;12.50;99.90;;;;;;5067050;28;19921;-70
2022/09/28 07:20:46;;;;;;;;;;;12.60;99.90;;;;;;5047308;28;19928;-70
2022/09/28 07:23:20;;;;;;;;;;;12.60;99.90;;;;;;5042677;28;19931;-70
2022/09/28 07:26:05;;;;;;;;;;;12.60;99.90;;;;;;5063419;28;19937;-70
2022/09/28 07:28:55;;;;;;;;;;;12.60;99.90;;;;;;5046333;28;19929;-70
2022/09/28 07:31:43;;;;;;;;;;;12.70;99.90;;;;;;5043860;28;19931;-73
2022/09/28 07:34:25;;;;;;;;;;;12.70;99.90;;;;;;5039874;28;20227;-69
2022/09/28 07:36:58;;;;;;;;;;;12.80;99.90;;;;;;5045384;28;20886;-70
2022/09/28 07:39:25;;;;;;;;;;;12.80;99.90;;;;;;5044285;28;19931;-70
2022/09/28 07:41:52;;;;;;;;;;;12.90;99.90;;;;;;5063166;28;19928;-70
2022/09/28 07:44:25;;;;;;;;;;;12.90;99.90;;;;;;5044427;28;20027;-71
2022/09/28 07:46:53;;;;;;;;;;;12.90;99.90;;;;;;5045460;28;19927;-70
2022/09/28 07:49:25;;;;;;;;;;;13.00;99.90;;;;;;5046854;28;19956;-70
2022/09/28 07:51:58;;;;;;;;;;;13.00;99.90;;;;;;5049006;28;19925;-70
2022/09/28 07:54:26;;;;;;;;;;;13.00;99.90;;;;;;5062621;28;20785;-71
2022/09/28 07:57:22;;;;;;;;;;;13.00;99.90;;;;;;4977389;28;19926;-70
2022/09/28 08:00:08;;;;;;;;;;;13.00;99.90;;;;;;5066112;28;20384;-70
2022/09/28 08:02:44;;;;;;;;;;;13.10;99.90;;;;;;5064885;28;19920;-70
2022/09/28 08:05:15;;;;;;;;;;;13.10;99.90;;;;;;5047463;28;19924;-71
2022/09/28 08:07:43;;;;;;;;;;;13.10;99.90;;;;;;5048141;28;19978;-70
2022/09/28 08:10:10;;;;;;;;;;;13.20;99.90;;;;;;5043196;28;20362;-70
2022/09/28 08:13:04;;;;;;;;;;;13.20;99.90;;;;;;5061024;28;19924;-70
2022/09/28 08:15:35;;;;;;;;;;;13.20;99.90;;;;;;5063325;28;19924;-71
2022/09/28 08:18:15;;;;;;;;;;;13.20;99.90;;;;;;5046917;28;19920;-71
2022/09/28 08:23:27;;;;;;;;;;;13.30;99.90;;;;;;5045102;28;19924;-71
2022/09/28 08:25:54;;;;;;;;;;;13.40;99.90;;;;;;5044731;28;19924;-70
2022/09/28 08:28:22;;;;;;;;;;;13.40;99.90;;;;;;5060702;28;19932;-71
2022/09/28 08:30:53;;;;;;;;;;;13.40;99.90;;;;;;5046547;28;19924;-71
2022/09/28 08:33:40;;;;;;;;;;;13.40;99.90;;;;;;5061841;28;19958;-71
2022/09/28 08:36:25;;;;;;;;;;;13.40;99.90;;;;;;5066629;28;19927;-71
2022/09/28 08:39:00;;;;;;;;;;;13.50;99.90;;;;;;5060097;28;19924;-71
2022/09/28 08:41:52;;;;;;;;;;;13.50;99.90;;;;;;5066864;28;19936;-71
2022/09/28 08:44:39;;;;;;;;;;;13.60;99.90;;;;;;5065580;28;19931;-71
2022/09/28 08:48:42;;;;;;;;;;;13.60;99.90;;;;;;5069046;28;19928;-71
2022/09/28 08:50:18;;;;;;;;;;;13.60;99.90;;;;;;5068663;28;19974;-71
2022/09/28 08:53:04;;;;;;;;;;;13.60;99.90;;;;;;5065536;28;20401;-70
2022/09/28 08:55:53;;;;;;;;;;;13.60;99.90;;;;;;5063881;28;19955;-70
2022/09/28 08:58:27;;;;;;;;;;;13.50;99.90;;;;;;5064082;28;19941;-70
2022/09/28 09:00:54;;;;;;;;;;;13.50;99.90;;;;;;5045314;28;19927;-70
2022/09/28 09:03:31;;;;;;;;;;;13.50;99.90;;;;;;5042494;28;19928;-70
2022/09/28 09:06:26;;;;;;;;;;;13.60;99.90;;;;;;5050277;28;20441;-72
2022/09/28 09:08:56;;;;;;;;;;;13.60;99.90;;;;;;5067732;28;19970;-70
2022/09/28 09:11:26;;;;;;;;;;;13.60;99.90;;;;;;5050992;28;19931;-71
2022/09/28 09:14:12;;;;;;;;;;;13.60;99.90;;;;;;5043801;28;19924;-70
2022/09/28 09:16:56;;;;;;;;;;;13.70;99.90;;;;;;5047629;28;19931;-69
2022/09/28 09:19:51;;;;;;;;;;;13.70;99.90;;;;;;5066790;28;19931;-71
2022/09/28 09:22:40;;;;;;;;;;;13.80;99.90;;;;;;5062491;28;19930;-70
2022/09/28 09:25:27;;;;;;;;;;;13.80;99.90;;;;;;5045384;28;19966;-71
2022/09/28 09:27:56;;;;;;;;;;;13.70;99.90;;;;;;5046762;28;19928;-70
2022/09/28 09:30:25;;;;;;;;;;;13.70;99.90;;;;;;5047689;28;19927;-73
2022/09/28 09:33:11;;;;;;;;;;;13.70;99.90;;;;;;5044143;28;19924;-71
2022/09/28 09:36:01;;;;;;;;;;;13.70;99.90;;;;;;5064554;28;19920;-70
2022/09/28 09:38:51;;;;;;;;;;;13.70;99.90;;;;;;5065465;28;19935;-71
2022/09/28 09:41:36;;;;;;;;;;;13.70;99.90;;;;;;5067969;28;19935;-70
2022/09/28 09:44:31;;;;;;;;;;;13.80;99.90;;;;;;5065135;28;19927;-70
2022/09/28 09:47:24;;;;;;;;;;;13.80;99.90;;;;;;5023189;28;19921;-71
2022/09/28 09:49:57;;;;;;;;;;;13.90;99.90;;;;;;5046508;28;19955;-70
2022/09/28 09:52:32;;;;;;;;;;;14.00;99.90;;;;;;5068291;28;19974;-71
2022/09/28 09:55:13;;;;;;;;;;;14.10;99.90;;;;;;5046377;28;20025;-70
2022/09/28 09:58:01;;;;;;;;;;;14.20;99.90;;;;;;5048575;28;19952;-70
2022/09/28 10:00:49;;;;;;;;;;;14.30;99.90;;;;;;5044135;28;19921;-71
2022/09/28 10:03:43;;;;;;;;;;;14.40;99.90;;;;;;5064855;28;19928;-70
2022/09/28 10:06:18;;;;;;;;;;;14.40;99.90;;;;;;5049388;28;19920;-70
2022/09/28 10:08:51;;;;;;;;;;;14.40;99.90;;;;;;5046280;28;20031;-69
2022/09/28 10:11:26;;;;;;;;;;;14.50;99.90;;;;;;5047228;28;19988;-70
2022/09/28 10:13:54;;;;;;;;;;;14.60;99.90;;;;;;5048386;28;19928;-70
2022/09/28 10:16:35;;;;;;;;;;;14.70;99.90;;;;;;5061584;28;19982;-70
2022/09/28 10:19:10;;;;;;;;;;;14.80;99.90;;;;;;5046393;28;19924;-70
2022/09/28 10:22:04;;;;;;;;;;;14.80;99.90;;;;;;5046763;28;19959;-70
2022/09/28 10:24:35;;;;;;;;;;;14.80;99.90;;;;;;5041815;28;19921;-69
2022/09/28 10:27:04;;;;;;;;;;;14.70;99.90;;;;;;5049793;28;19963;-70
2022/09/28 10:29:41;;;;;;;;;;;14.60;99.90;;;;;;5047817;28;20331;-70
2022/09/28 10:32:22;;;;;;;;;;;14.70;99.90;;;;;;5049859;28;20427;-68
2022/09/28 10:35:10;;;;;;;;;;;14.70;99.90;;;;;;5058595;28;19924;-72
2022/09/28 10:37:56;;;;;;;;;;;14.60;99.90;;;;;;5055945;28;19928;-67
2022/09/28 10:40:38;;;;;;;;;;;14.60;99.90;;;;;;5059380;28;19927;-70
2022/09/28 10:43:14;;;;;;;;;;;14.50;99.90;;;;;;5062782;28;19920;-67
2022/09/28 10:45:42;;;;;;;;;;;14.40;99.90;;;;;;5060877;28;19927;-70
2022/09/28 10:48:19;;;;;;;;;;;14.40;99.90;;;;;;5064875;28;19931;-70
2022/09/28 10:51:04;;;;;;;;;;;14.40;99.90;;;;;;5052035;28;19929;-68
2022/09/28 10:53:33;;;;;;;;;;;14.40;99.90;;;;;;5042197;28;19925;-68
2022/09/28 10:56:19;;;;;;;;;;;14.40;99.90;;;;;;5046823;28;19927;-68
2022/09/28 10:58:47;;;;;;;;;;;14.40;99.90;;;;;;5043172;28;20019;-68
2022/09/28 11:01:29;;;;;;;;;;;14.30;99.90;;;;;;5047682;28;20662;-68
2022/09/28 11:03:58;;;;;;;;;;;14.30;99.90;;;;;;5045435;28;19928;-68
2022/09/28 11:06:26;;;;;;;;;;;14.30;99.90;;;;;;5042250;28;20281;-69
2022/09/28 11:08:56;;;;;;;;;;;14.30;99.90;;;;;;5043944;28;19924;-68
2022/09/28 11:11:26;;;;;;;;;;;14.30;99.90;;;;;;5046925;28;19920;-68
2022/09/28 11:14:01;;;;;;;;;;;14.40;99.90;;;;;;5070363;28;20751;-68
2022/09/28 11:16:34;;;;;;;;;;;14.50;99.90;;;;;;5043852;28;19950;-68
2022/09/28 11:19:04;;;;;;;;;;;14.50;99.90;;;;;;5041086;28;19920;-67
2022/09/28 11:21:40;;;;;;;;;;;14.50;99.90;;;;;;5062169;28;19951;-68
2022/09/28 11:24:24;;;;;;;;;;;14.50;99.90;;;;;;5046332;28;20031;-68
2022/09/28 11:26:55;;;;;;;;;;;14.50;99.90;;;;;;5043823;28;20358;-68
2022/09/28 11:29:42;;;;;;;;;;;14.60;99.90;;;;;;5028990;28;19925;-69
2022/09/28 11:32:39;;;;;;;;;;;14.60;99.90;;;;;;5041495;28;19924;-69
2022/09/28 11:35:31;;;;;;;;;;;14.60;99.90;;;;;;5057167;28;19931;-68
2022/09/28 11:38:10;;;;;;;;;;;14.60;99.90;;;;;;5060129;28;19924;-68
2022/09/28 11:41:07;;;;;;;;;;;14.50;99.90;;;;;;5065981;28;19920;-71
2022/09/28 11:43:54;;;;;;;;;;;14.40;99.90;;;;;;5047010;28;19951;-68
2022/09/28 11:46:21;;;;;;;;;;;14.40;99.90;;;;;;5042066;28;20370;-68
2022/09/28 11:48:53;;;;;;;;;;;14.40;99.90;;;;;;5040620;28;19925;-67
2022/09/28 11:51:23;;;;;;;;;;;14.40;99.90;;;;;;5042916;28;19929;-69
2022/09/28 11:53:55;;;;;;;;;;;14.30;99.90;;;;;;5046090;28;19920;-67
2022/09/28 11:56:26;;;;;;;;;;;14.30;99.90;;;;;;5057701;28;19924;-69
2022/09/28 11:58:59;;;;;;;;;;;14.30;99.90;;;;;;5061788;28;19960;-68
2022/09/28 12:01:39;;;;;;;;;;;14.30;99.90;;;;;;5047125;28;19927;-68
2022/09/28 12:04:16;;;;;;;;;;;14.30;99.90;;;;;;5040867;28;19975;-68
2022/09/28 12:06:47;;;;;;;;;;;14.20;99.90;;;;;;5056313;28;19924;-67
2022/09/28 12:09:21;;;;;;;;;;;14.30;99.90;;;;;;5045711;28;20278;-66
2022/09/28 12:12:18;;;;;;;;;;;14.40;99.90;;;;;;5048109;28;19925;-67
2022/09/28 12:14:46;;;;;;;;;;;14.70;99.90;;;;;;5044385;28;21423;-68
2022/09/28 12:17:21;;;;;;;;;;;14.80;99.90;;;;;;5069647;28;19927;-68
2022/09/28 12:19:55;;;;;;;;;;;14.80;99.90;;;;;;5069770;28;19924;-67
2022/09/28 12:22:25;;;;;;;;;;;14.80;99.90;;;;;;5065838;28;19928;-67
2022/09/28 12:24:54;;;;;;;;;;;14.70;99.90;;;;;;5064044;28;20480;-69
2022/09/28 12:27:21;;;;;;;;;;;14.60;99.90;;;;;;5069084;28;20003;-67
2022/09/28 12:30:14;;;;;;;;;;;14.50;99.90;;;;;;5048220;28;20298;-68
2022/09/28 12:32:49;;;;;;;;;;;14.50;99.90;;;;;;5063657;28;20365;-67
2022/09/28 12:35:34;;;;;;;;;;;14.50;99.90;;;;;;5062671;28;20399;-67
2022/09/28 12:38:20;;;;;;;;;;;14.50;99.90;;;;;;5061353;28;19924;-67
2022/09/28 12:40:46;;;;;;;;;;;14.50;99.90;;;;;;5065251;28;19963;-67
2022/09/28 12:43:32;;;;;;;;;;;14.60;99.90;;;;;;5068832;28;19943;-70
2022/09/28 12:46:09;;;;;;;;;;;14.60;99.90;;;;;;5063635;28;20026;-67
2022/09/28 12:48:44;;;;;;;;;;;14.60;99.90;;;;;;5060480;28;20362;-68
2022/09/28 12:51:36;;;;;;;;;;;14.70;99.90;;;;;;5068488;28;19974;-68
2022/09/28 12:54:21;;;;;;;;;;;14.70;99.90;;;;;;5067234;28;19928;-67
2022/09/28 12:57:06;;;;;;;;;;;14.80;99.90;;;;;;5066739;28;20426;-68
2022/09/28 12:59:52;;;;;;;;;;;14.90;99.90;;;;;;5066229;28;20047;-67
2022/09/28 13:02:18;;;;;;;;;;;15.10;99.90;;;;;;5064731;28;19926;-68
2022/09/28 13:05:06;;;;;;;;;;;15.10;99.90;;;;;;5063103;28;19950;-67
2022/09/28 13:07:33;;;;;;;;;;;15.00;99.90;;;;;;5066613;28;19930;-67
2022/09/28 13:10:12;;;;;;;;;;;15.10;99.90;;;;;;5064006;28;19920;-68
2022/09/28 13:12:50;;;;;;;;;;;15.10;99.90;;;;;;5065280;28;19924;-69
2022/09/28 13:15:28;;;;;;;;;;;15.20;99.90;;;;;;5064834;28;20030;-70
2022/09/28 13:18:11;;;;;;;;;;;15.20;99.90;;;;;;5063441;28;20002;-71
2022/09/28 13:20:47;;;;;;;;;;;15.30;99.90;;;;;;5060524;28;19924;-68
2022/09/28 13:23:20;;;;;;;;;;;15.30;99.90;;;;;;5067558;28;20465;-67
2022/09/28 13:25:54;;;;;;;;;;;15.10;99.90;;;;;;5060243;28;20007;-68
2022/09/28 13:28:22;;;;;;;;;;;15.10;99.90;;;;;;5069159;28;21936;-69
2022/09/28 13:30:54;;;;;;;;;;;15.00;99.90;;;;;;5066676;28;20007;-68
2022/09/28 13:33:42;;;;;;;;;;;15.10;99.90;;;;;;5068229;28;19924;-68
2022/09/28 13:36:27;;;;;;;;;;;15.00;99.90;;;;;;5022347;28;19925;-69
2022/09/28 13:38:54;;;;;;;;;;;15.00;99.90;;;;;;5023779;28;19948;-67
2022/09/28 13:41:23;;;;;;;;;;;15.10;99.90;;;;;;5026035;28;20271;-68
2022/09/28 13:44:09;;;;;;;;;;;15.20;99.90;;;;;;5024381;28;19960;-68
2022/09/28 13:46:38;;;;;;;;;;;15.30;99.90;;;;;;5017703;28;20318;-67
2022/09/28 13:49:27;;;;;;;;;;;15.30;99.90;;;;;;5026213;28;19933;-68
2022/09/28 13:51:54;;;;;;;;;;;15.30;99.90;;;;;;5028324;28;19921;-68
2022/09/28 13:54:20;;;;;;;;;;;15.30;99.90;;;;;;5028815;28;19921;-68
2022/09/28 13:57:06;;;;;;;;;;;15.30;99.90;;;;;;5022323;28;19921;-68
2022/09/28 13:59:41;;;;;;;;;;;15.20;99.90;;;;;;5026107;28;20318;-68
2022/09/28 14:02:19;;;;;;;;;;;15.10;99.90;;;;;;5027614;28;19927;-68
2022/09/28 14:04:49;;;;;;;;;;;15.10;99.90;;;;;;5018164;28;19964;-68
2022/09/28 14:07:20;;;;;;;;;;;15.00;99.90;;;;;;5026868;28;20387;-70
2022/09/28 14:10:10;;;;;;;;;;;15.00;99.90;;;;;;5027740;28;20024;-68
2022/09/28 14:12:37;;;;;;;;;;;15.00;99.90;;;;;;5015570;28;19983;-68
2022/09/28 14:15:24;;;;;;;;;;;14.90;99.90;;;;;;5027229;28;19943;-68
2022/09/28 14:18:14;;;;;;;;;;;14.70;99.90;;;;;;5027559;28;19956;-68
2022/09/28 14:20:49;;;;;;;;;;;14.50;99.90;;;;;;5024004;28;19959;-67
2022/09/28 14:23:36;;;;;;;;;;;14.50;99.90;;;;;;5021956;28;20037;-67
2022/09/28 14:26:13;;;;;;;;;;;14.50;99.90;;;;;;5020706;28;19963;-68
2022/09/28 14:28:50;;;;;;;;;;;14.50;99.90;;;;;;5024831;28;19924;-67
2022/09/28 14:31:25;;;;;;;;;;;14.60;99.90;;;;;;5022372;28;19925;-68
2022/09/28 14:34:00;;;;;;;;;;;14.70;99.90;;;;;;5033413;28;20340;-68
2022/09/28 14:42:08;;;;;;;;;;;14.70;99.90;;;;;;5064961;28;19924;-68
2022/09/28 14:44:53;;;;;;;;;;;14.70;99.90;;;;;;5063890;28;19931;-68
2022/09/28 14:47:24;;;;;;;;;;;14.70;99.90;;;;;;5065833;28;20401;-67
2022/09/28 14:49:58;;;;;;;;;;;14.70;99.90;;;;;;5067638;28;19928;-68
2022/09/28 14:52:38;;;;;;;;;;;14.60;99.90;;;;;;5063845;28;19928;-68
2022/09/28 14:55:12;;;;;;;;;;;14.50;99.90;;;;;;5056761;28;19924;-67
2022/09/28 14:57:40;;;;;;;;;;;14.40;99.90;;;;;;5067110;28;19931;-68
2022/09/28 15:00:14;;;;;;;;;;;14.20;99.90;;;;;;5065341;28;20016;-67
2022/09/28 15:02:44;;;;;;;;;;;14.10;99.90;;;;;;5063601;28;20706;-69
2022/09/28 15:05:21;;;;;;;;;;;13.90;99.90;;;;;;5065364;28;20350;-68
2022/09/28 15:07:50;;;;;;;;;;;13.80;99.90;;;;;;5062818;28;19920;-68
2022/09/28 15:10:30;;;;;;;;;;;13.60;99.90;;;;;;5062681;28;19931;-68